Time;durP1;ratioP1;P1;durP2;ratioP2;P2;SDS_P1;SDS_P2;PMS_P1;PMS_P2;Temp;Humidity;BMP_temperature;BMP_pressure;BME280_temperature;BME280_humidity;BME280_pressure;Samples;Min_cycle;Max_cycle;Signal;HPM_P1;HPM_P2
2021/03/11 00:02:10;;;;;;;71.30;34.90;;;-1.80;99.90;;;;;;5146189;28;20200;-71
2021/03/11 00:04:43;;;;;;;70.70;33.47;;;-1.80;99.90;;;;;;5146132;28;20219;-70
2021/03/11 00:07:15;;;;;;;75.10;36.87;;;-1.70;99.90;;;;;;5146557;28;20192;-71
2021/03/11 00:09:47;;;;;;;73.93;36.33;;;-1.80;99.90;;;;;;5146262;28;20231;-71
2021/03/11 00:12:19;;;;;;;74.67;36.90;;;-1.80;99.90;;;;;;5146179;28;20198;-72
2021/03/11 00:14:51;;;;;;;70.23;38.70;;;-1.80;99.90;;;;;;5146104;28;20202;-70
2021/03/11 00:17:22;;;;;;;77.50;37.20;;;-1.80;99.90;;;;;;5146345;28;20221;-70
2021/03/11 00:19:54;;;;;;;75.83;38.03;;;-1.80;99.90;;;;;;5146025;28;20199;-70
2021/03/11 00:22:26;;;;;;;76.37;39.57;;;-1.80;99.90;;;;;;5151631;28;20202;-74
2021/03/11 00:28:15;;;;;;;77.23;39.23;;;-1.80;99.90;;;;;;5146084;28;20264;-71
2021/03/11 00:30:46;;;;;;;81.50;38.70;;;-1.80;99.90;;;;;;5152930;28;20202;-72
2021/03/11 00:33:18;;;;;;;76.03;38.73;;;-1.90;99.90;;;;;;5153314;28;20210;-72
2021/03/11 00:35:50;;;;;;;81.40;38.77;;;-1.90;99.90;;;;;;5152612;28;20211;-71
2021/03/11 00:38:21;;;;;;;76.13;40.60;;;-1.90;99.90;;;;;;5152935;28;20191;-64
2021/03/11 00:44:48;;;;;;;80.40;38.30;;;-2.00;99.90;;;;;;5152649;28;20182;-73
2021/03/11 00:47:21;;;;;;;76.93;40.30;;;-2.10;99.90;;;;;;5152734;28;20566;-72
2021/03/11 00:49:53;;;;;;;80.87;38.37;;;-2.10;99.90;;;;;;5152731;28;20222;-72
2021/03/11 00:52:25;;;;;;;84.87;39.87;;;-2.10;99.90;;;;;;5152745;28;20638;-73
2021/03/11 00:54:57;;;;;;;81.13;40.33;;;-2.20;99.90;;;;;;5152770;28;20646;-73
2021/03/11 01:01:23;;;;;;;75.03;37.97;;;-2.20;99.90;;;;;;5152456;28;20185;-72
2021/03/11 01:03:55;;;;;;;88.13;42.00;;;-2.30;99.90;;;;;;5152683;28;20195;-68
2021/03/11 01:06:27;;;;;;;88.47;41.80;;;-2.30;99.90;;;;;;5152632;28;20328;-71
2021/03/11 01:08:58;;;;;;;88.83;42.27;;;-2.30;99.90;;;;;;5152294;28;20221;-72
2021/03/11 01:11:30;;;;;;;89.00;44.17;;;-2.40;99.90;;;;;;5152658;28;20218;-71
2021/03/11 01:14:05;;;;;;;86.53;41.73;;;-2.40;99.90;;;;;;5152648;28;20203;-73
2021/03/11 01:16:36;;;;;;;94.97;44.47;;;-2.40;99.90;;;;;;5152280;28;20188;-73
2021/03/11 01:19:08;;;;;;;91.43;42.13;;;-2.40;99.90;;;;;;5152654;28;20199;-70
2021/03/11 01:21:39;;;;;;;94.80;42.57;;;-2.40;99.90;;;;;;5152088;28;20191;-71
2021/03/11 01:24:26;;;;;;;84.00;42.40;;;-2.40;99.90;;;;;;5151019;28;20194;-70
2021/03/11 01:26:58;;;;;;;92.37;43.80;;;-2.50;99.90;;;;;;5152186;28;20201;-71
2021/03/11 01:29:29;;;;;;;89.40;43.07;;;-2.50;99.90;;;;;;5152353;28;20234;-72
2021/03/11 01:32:01;;;;;;;93.50;43.70;;;-2.50;99.90;;;;;;5151963;28;20199;-71
2021/03/11 01:34:32;;;;;;;96.53;43.83;;;-2.50;99.90;;;;;;5148296;28;20197;-71
2021/03/11 01:37:04;;;;;;;92.40;43.20;;;-2.50;99.90;;;;;;5149470;28;20207;-69
2021/03/11 01:39:35;;;;;;;95.10;44.93;;;-2.60;99.90;;;;;;5149414;28;20203;-72
2021/03/11 01:42:07;;;;;;;89.47;44.43;;;-2.60;99.90;;;;;;5149594;28;20201;-72
2021/03/11 01:44:38;;;;;;;87.60;44.07;;;-2.60;99.90;;;;;;5149410;28;20194;-70
2021/03/11 01:47:10;;;;;;;91.37;44.80;;;-2.70;99.90;;;;;;5148959;28;20218;-71
2021/03/11 01:49:41;;;;;;;93.00;44.53;;;-2.70;99.90;;;;;;5148564;28;20221;-71
2021/03/11 01:52:13;;;;;;;88.67;43.90;;;-2.70;99.90;;;;;;5148872;28;20245;-70
2021/03/11 01:54:45;;;;;;;91.30;43.33;;;-2.70;99.90;;;;;;5148802;28;20209;-69
2021/03/11 01:57:17;;;;;;;92.00;43.63;;;-2.70;99.90;;;;;;5147065;28;20200;-69
2021/03/11 01:59:49;;;;;;;90.23;43.23;;;-2.70;99.90;;;;;;5148767;28;20205;-70
2021/03/11 02:02:21;;;;;;;93.53;43.97;;;-2.80;99.90;;;;;;5148349;28;20202;-71
2021/03/11 02:04:53;;;;;;;87.90;44.03;;;-2.80;99.90;;;;;;5149108;28;20274;-69
2021/03/11 02:07:25;;;;;;;99.40;45.63;;;-2.80;99.90;;;;;;5148677;28;20206;-72
2021/03/11 02:09:56;;;;;;;90.73;45.53;;;-2.80;99.90;;;;;;5148233;28;20252;-71
2021/03/11 02:12:34;;;;;;;93.37;45.97;;;-2.80;99.90;;;;;;5148501;28;20269;-68
2021/03/11 02:15:15;;;;;;;95.60;47.17;;;-2.70;99.90;;;;;;5148454;28;20222;-71
2021/03/11 02:17:54;;;;;;;97.80;43.90;;;-2.70;99.90;;;;;;5148987;28;20199;-72
2021/03/11 02:20:47;;;;;;;101.43;47.50;;;-2.80;99.90;;;;;;5148376;28;20199;-72
2021/03/11 02:23:56;;;;;;;94.47;45.87;;;-2.70;99.90;;;;;;5147951;28;20202;-72
2021/03/11 02:30:24;;;;;;;92.70;43.10;;;-2.80;99.90;;;;;;5148261;28;20566;-70
2021/03/11 02:32:57;;;;;;;90.67;46.07;;;-2.80;99.90;;;;;;5148413;28;20200;-70
2021/03/11 02:35:30;;;;;;;97.23;46.20;;;-2.80;99.90;;;;;;5148199;28;20203;-64
2021/03/11 02:38:03;;;;;;;99.97;45.53;;;-2.80;99.90;;;;;;5147925;28;20188;-65
2021/03/11 02:40:37;;;;;;;88.23;44.20;;;-2.90;99.90;;;;;;5147914;28;20199;-65
2021/03/11 02:43:12;;;;;;;92.27;43.13;;;-2.90;99.90;;;;;;5147726;28;20202;-63
2021/03/11 02:45:45;;;;;;;101.83;46.13;;;-2.90;99.90;;;;;;5147065;28;20188;-62
2021/03/11 02:48:17;;;;;;;98.60;45.50;;;-3.00;99.90;;;;;;5147525;28;20219;-63
2021/03/11 02:50:49;;;;;;;99.80;44.80;;;-3.00;99.90;;;;;;5147805;28;20655;-63
2021/03/11 02:53:21;;;;;;;92.43;43.77;;;-3.00;99.90;;;;;;5147405;28;20196;-66
2021/03/11 02:55:55;;;;;;;93.47;43.00;;;-3.00;99.90;;;;;;5147850;28;20199;-62
2021/03/11 02:59:10;;;;;;;94.03;43.53;;;-3.00;99.90;;;;;;5125287;29;20282;-64
2021/03/11 03:01:42;;;;;;;89.10;42.90;;;-3.00;99.90;;;;;;5125175;29;20543;-64
2021/03/11 03:04:14;;;;;;;85.17;42.97;;;-3.00;99.90;;;;;;5125149;29;20727;-64
2021/03/11 03:06:46;;;;;;;102.43;44.93;;;-3.00;99.90;;;;;;5125083;29;20210;-63
2021/03/11 03:09:19;;;;;;;93.30;44.70;;;-3.00;99.90;;;;;;5124983;28;20238;-64
2021/03/11 03:15:36;;;;;;;85.13;42.50;;;-3.00;99.90;;;;;;5124848;28;20276;-63
2021/03/11 03:18:10;;;;;;;92.40;44.47;;;-2.90;99.90;;;;;;5124877;29;20225;-63
2021/03/11 03:20:43;;;;;;;103.97;45.10;;;-2.90;99.90;;;;;;5124796;29;20208;-68
2021/03/11 03:23:15;;;;;;;93.90;44.70;;;-3.00;99.90;;;;;;5124912;29;20223;-72
2021/03/11 03:25:48;;;;;;;90.63;43.50;;;-3.00;99.90;;;;;;5124709;29;20239;-70
2021/03/11 03:32:54;;;;;;;94.63;43.90;;;-3.00;99.90;;;;;;5104994;29;20308;-71
2021/03/11 03:35:26;;;;;;;93.57;44.10;;;-3.10;99.90;;;;;;5105407;29;20234;-70
2021/03/11 03:37:57;;;;;;;93.57;44.87;;;-3.10;99.90;;;;;;5107208;29;20566;-71
2021/03/11 03:40:29;;;;;;;88.43;42.77;;;-3.20;99.90;;;;;;5107110;29;20194;-70
2021/03/11 03:46:59;;;;;;;98.30;42.53;;;-3.20;99.90;;;;;;5106833;29;20248;-72
2021/03/11 03:49:33;;;;;;;95.20;45.50;;;-3.20;99.90;;;;;;5106967;29;20574;-72
2021/03/11 03:52:06;;;;;;;95.00;43.90;;;-3.20;99.90;;;;;;5106924;29;20193;-71
2021/03/11 03:54:43;;;;;;;96.00;45.03;;;-3.20;99.90;;;;;;5106646;29;20200;-69
2021/03/11 03:57:18;;;;;;;91.53;43.90;;;-3.20;99.90;;;;;;5106589;28;20560;-70
2021/03/11 03:59:52;;;;;;;91.20;42.77;;;-3.20;99.90;;;;;;5106900;29;20240;-71
2021/03/11 04:02:24;;;;;;;85.03;40.87;;;-3.20;99.90;;;;;;5106812;29;20664;-71
2021/03/11 04:04:56;;;;;;;88.17;42.47;;;-3.20;99.90;;;;;;5106825;29;20268;-71
2021/03/11 04:07:29;;;;;;;86.23;42.17;;;-3.20;99.90;;;;;;5106383;29;20205;-73
2021/03/11 04:10:07;;;;;;;95.23;43.90;;;-3.20;99.90;;;;;;5106671;29;20330;-72
2021/03/11 04:12:39;;;;;;;93.13;42.97;;;-3.30;99.90;;;;;;5106544;29;20218;-73
2021/03/11 04:15:11;;;;;;;91.30;42.60;;;-3.30;99.90;;;;;;5106555;29;20205;-71
2021/03/11 04:17:43;;;;;;;93.37;44.07;;;-3.30;99.90;;;;;;5106499;28;20544;-69
2021/03/11 04:20:16;;;;;;;90.87;43.67;;;-3.20;99.90;;;;;;5106588;29;20272;-71
2021/03/11 04:22:52;;;;;;;96.30;43.47;;;-3.30;99.90;;;;;;5106539;29;20611;-70
2021/03/11 04:25:24;;;;;;;91.93;42.53;;;-3.30;99.90;;;;;;5106233;29;20198;-70
2021/03/11 04:27:56;;;;;;;93.93;42.50;;;-3.30;99.90;;;;;;5106433;29;20202;-70
2021/03/11 04:30:28;;;;;;;86.73;42.57;;;-3.30;99.90;;;;;;5108687;28;20233;-70
2021/03/11 04:33:00;;;;;;;98.20;45.03;;;-3.30;99.90;;;;;;5146148;28;20197;-70
2021/03/11 04:35:32;;;;;;;88.73;41.67;;;-3.20;99.90;;;;;;5146226;28;20289;-71
2021/03/11 04:38:05;;;;;;;98.83;43.63;;;-3.20;99.90;;;;;;5145924;28;20674;-70
2021/03/11 04:40:37;;;;;;;92.87;43.57;;;-3.20;99.90;;;;;;5145801;28;20211;-70
2021/03/11 04:43:09;;;;;;;95.27;44.57;;;-3.20;99.90;;;;;;5146064;28;20193;-70
2021/03/11 04:45:45;;;;;;;86.93;42.57;;;-3.20;99.90;;;;;;5145863;28;20219;-72
2021/03/11 04:48:17;;;;;;;96.00;43.73;;;-3.20;99.90;;;;;;5145684;28;20199;-71
2021/03/11 04:50:49;;;;;;;94.87;43.27;;;-3.20;99.90;;;;;;5145803;28;20207;-70
2021/03/11 04:53:21;;;;;;;98.40;45.47;;;-3.20;99.90;;;;;;5145675;28;20195;-70
2021/03/11 04:55:54;;;;;;;92.67;44.17;;;-3.10;99.90;;;;;;5146078;28;20196;-71
2021/03/11 04:58:25;;;;;;;105.97;46.20;;;-3.10;99.90;;;;;;5145984;28;20585;-73
2021/03/11 05:00:58;;;;;;;102.33;44.80;;;-3.10;99.90;;;;;;5145566;28;20203;-73
2021/03/11 05:03:30;;;;;;;94.70;45.73;;;-3.10;99.90;;;;;;5160457;28;20204;-70
2021/03/11 05:06:02;;;;;;;98.63;45.67;;;-3.10;99.90;;;;;;5145570;28;20197;-69
2021/03/11 05:08:33;;;;;;;100.57;45.23;;;-3.00;99.90;;;;;;5145704;28;20224;-70
2021/03/11 05:11:05;;;;;;;99.20;44.60;;;-3.00;99.90;;;;;;5149597;28;20508;-71
2021/03/11 05:13:36;;;;;;;98.50;45.80;;;-3.00;99.90;;;;;;5149321;28;20189;-70
2021/03/11 05:16:08;;;;;;;101.00;45.77;;;-3.00;99.90;;;;;;5149453;28;20207;-68
2021/03/11 05:18:39;;;;;;;104.70;46.00;;;-2.90;99.90;;;;;;5149057;28;20217;-71
2021/03/11 05:21:12;;;;;;;98.47;46.90;;;-2.90;99.90;;;;;;5149333;28;20196;-72
2021/03/11 05:24:01;;;;;;;101.67;46.30;;;-2.90;99.90;;;;;;5149230;28;20204;-71
2021/03/11 05:26:33;;;;;;;107.77;47.73;;;-2.90;99.90;;;;;;5149350;28;20528;-73
2021/03/11 05:29:04;;;;;;;98.27;46.43;;;-2.90;99.90;;;;;;5148867;28;20239;-74
2021/03/11 05:31:37;;;;;;;104.70;46.87;;;-2.80;99.90;;;;;;5149077;28;20310;-72
2021/03/11 05:34:08;;;;;;;106.47;46.37;;;-2.80;99.90;;;;;;5149786;28;20204;-72
2021/03/11 05:36:40;;;;;;;110.27;48.37;;;-2.80;99.90;;;;;;5149232;28;20203;-73
2021/03/11 05:39:12;;;;;;;101.27;46.80;;;-2.70;99.90;;;;;;5149268;28;20196;-73
2021/03/11 05:41:45;;;;;;;102.77;48.37;;;-2.60;99.90;;;;;;5149305;28;20227;-68
2021/03/11 05:44:16;;;;;;;96.87;47.87;;;-2.60;99.90;;;;;;5149073;28;20209;-71
2021/03/11 05:46:50;;;;;;;105.30;48.17;;;-2.50;99.90;;;;;;5149373;28;20557;-73
2021/03/11 05:49:24;;;;;;;100.33;46.77;;;-2.50;99.90;;;;;;5149469;28;20614;-73
2021/03/11 05:51:56;;;;;;;104.77;45.63;;;-2.40;99.90;;;;;;5148978;28;20190;-73
2021/03/11 05:54:30;;;;;;;100.33;45.13;;;-2.30;99.90;;;;;;5148305;28;20205;-72
2021/03/11 06:00:47;;;;;;;106.90;45.33;;;-2.10;99.90;;;;;;5148421;28;20228;-74
2021/03/11 06:03:21;;;;;;;106.47;47.30;;;-2.00;99.90;;;;;;5148376;28;20209;-72
2021/03/11 06:05:53;;;;;;;92.93;45.37;;;-2.00;99.90;;;;;;5148348;28;20200;-73
2021/03/11 06:08:25;;;;;;;96.53;46.53;;;-1.90;99.90;;;;;;5148275;28;20205;-72
2021/03/11 06:11:00;;;;;;;99.07;45.43;;;-1.80;99.90;;;;;;5148677;28;20290;-71
2021/03/11 06:17:17;;;;;;;92.73;42.17;;;-1.60;99.90;;;;;;5148653;28;20642;-78
2021/03/11 06:19:48;;;;;;;97.33;45.33;;;-1.50;99.90;;;;;;5148440;28;20203;-77
2021/03/11 06:22:20;;;;;;;104.63;44.50;;;-1.50;99.90;;;;;;5148396;28;20194;-77
2021/03/11 06:24:57;;;;;;;90.87;43.00;;;-1.40;99.90;;;;;;5149427;28;20192;-81
2021/03/11 06:27:29;;;;;;;86.43;43.20;;;-1.30;99.90;;;;;;5148625;28;20199;-83
2021/03/11 06:30:05;;;;;;;91.83;43.70;;;-1.20;99.90;;;;;;5148263;28;20223;-79
2021/03/11 06:32:54;;;;;;;89.30;43.27;;;-1.10;99.90;;;;;;5148245;28;20239;-77
2021/03/11 06:35:26;;;;;;;92.27;42.77;;;-1.00;99.90;;;;;;5149330;28;20219;-76
2021/03/11 06:37:57;;;;;;;83.43;42.57;;;-0.90;99.90;;;;;;5149158;28;20276;-77
2021/03/11 06:40:32;;;;;;;90.20;43.20;;;-0.80;99.90;;;;;;5148921;28;20196;-80
2021/03/11 06:43:12;;;;;;;89.37;41.93;;;-0.70;99.90;;;;;;5148656;28;20204;-81
2021/03/11 06:45:44;;;;;;;87.37;42.77;;;-0.60;99.90;;;;;;5148542;28;20203;-80
2021/03/11 06:48:27;;;;;;;92.53;41.23;;;-0.50;99.90;;;;;;5148355;28;20250;-79
2021/03/11 06:51:00;;;;;;;81.10;39.83;;;-0.40;99.90;;;;;;5148082;28;20207;-78
2021/03/11 06:53:31;;;;;;;82.50;39.87;;;-0.30;99.90;;;;;;5148455;28;20531;-80
2021/03/11 06:56:20;;;;;;;80.53;39.53;;;-0.30;99.90;;;;;;5149175;28;20254;-77
2021/03/11 06:59:01;;;;;;;78.97;39.23;;;-0.30;99.90;;;;;;5149011;28;20192;-78
2021/03/11 07:01:33;;;;;;;82.00;38.53;;;-0.20;99.90;;;;;;5150991;28;20196;-74
2021/03/11 07:04:20;;;;;;;80.13;37.03;;;-0.20;99.90;;;;;;5150518;28;20247;-73
2021/03/11 07:06:51;;;;;;;69.23;34.93;;;-0.20;99.90;;;;;;5148619;28;20200;-75
2021/03/11 07:09:39;;;;;;;77.43;38.70;;;-0.10;99.90;;;;;;5147809;28;20227;-66
2021/03/11 07:12:11;;;;;;;75.90;37.30;;;-0.10;99.90;;;;;;5148079;28;20210;-65
2021/03/11 07:14:42;;;;;;;72.90;34.73;;;0.00;99.90;;;;;;5147530;28;20203;-64
2021/03/11 07:17:19;;;;;;;77.23;34.93;;;0.00;99.90;;;;;;5147820;28;20204;-66
2021/03/11 07:20:15;;;;;;;60.40;31.93;;;0.10;99.90;;;;;;5162782;28;20802;-65
2021/03/11 07:23:01;;;;;;;61.03;31.63;;;0.10;99.90;;;;;;5146851;28;20206;-64
2021/03/11 07:25:35;;;;;;;71.70;31.77;;;0.20;99.90;;;;;;5147306;28;20197;-64
2021/03/11 07:31:56;;;;;;;63.97;29.13;;;0.20;99.90;;;;;;5146812;28;20410;-64
2021/03/11 07:34:38;;;;;;;61.67;30.70;;;0.20;99.90;;;;;;5146939;28;20211;-64
2021/03/11 07:37:10;;;;;;;62.60;29.83;;;0.30;99.90;;;;;;5146924;28;20200;-65
2021/03/11 07:39:45;;;;;;;65.70;30.57;;;0.30;99.90;;;;;;5146803;28;20279;-73
2021/03/11 07:42:16;;;;;;;59.90;29.00;;;0.40;99.90;;;;;;5147135;28;20207;-65
2021/03/11 07:48:44;;;;;;;59.87;27.70;;;0.50;99.90;;;;;;5146743;28;20208;-77
2021/03/11 07:51:17;;;;;;;63.60;29.10;;;0.50;99.90;;;;;;5147096;28;20204;-78
2021/03/11 07:53:49;;;;;;;51.70;28.13;;;0.60;99.90;;;;;;5147020;28;20541;-79
2021/03/11 07:56:20;;;;;;;59.23;28.47;;;0.60;99.90;;;;;;5146904;28;20200;-74
2021/03/11 07:59:11;;;;;;;59.53;28.73;;;0.70;99.90;;;;;;5146570;28;20247;-80
2021/03/11 08:02:06;;;;;;;51.57;27.37;;;0.60;99.90;;;;;;5146471;28;20231;-76
2021/03/11 08:04:42;;;;;;;54.73;26.67;;;0.70;99.90;;;;;;5144100;28;20196;-75
2021/03/11 08:07:25;;;;;;;55.80;27.40;;;0.70;99.90;;;;;;5146700;28;20200;-70
2021/03/11 08:09:58;;;;;;;47.43;25.43;;;0.70;99.90;;;;;;5147305;28;20267;-71
2021/03/11 08:12:34;;;;;;;54.37;27.43;;;0.70;99.90;;;;;;5147038;28;20607;-66
2021/03/11 08:15:26;;;;;;;58.93;27.43;;;0.80;99.90;;;;;;5147354;28;20195;-70
2021/03/11 08:17:58;;;;;;;56.43;27.33;;;0.80;99.90;;;;;;5143953;28;20571;-66
2021/03/11 08:20:32;;;;;;;58.83;27.53;;;0.80;99.90;;;;;;5146793;28;20192;-76
2021/03/11 08:23:06;;;;;;;56.03;26.90;;;0.90;99.90;;;;;;5146173;28;20203;-69
2021/03/11 08:25:38;;;;;;;54.87;26.50;;;0.90;99.90;;;;;;5146512;28;20665;-75
2021/03/11 08:32:44;;;;;;;56.53;27.07;;;1.00;99.90;;;;;;5146215;28;20294;-71
2021/03/11 08:35:28;;;;;;;54.53;26.37;;;1.10;99.90;;;;;;5146411;28;20639;-74
2021/03/11 08:38:00;;;;;;;60.67;27.17;;;1.10;99.90;;;;;;5146401;28;20200;-73
2021/03/11 08:40:42;;;;;;;53.43;27.70;;;1.10;99.90;;;;;;5146474;28;20217;-77
2021/03/11 08:47:09;;;;;;;62.03;32.72;;;1.10;99.90;;;;;;5149032;28;20402;-74
2021/03/11 08:49:53;;;;;;;58.17;29.67;;;1.20;99.90;;;;;;5149985;28;20560;-73
2021/03/11 08:52:42;;;;;;;52.30;28.43;;;1.20;99.90;;;;;;5149643;28;20196;-75
2021/03/11 08:55:34;;;;;;;65.37;27.70;;;1.20;99.90;;;;;;5150166;28;20200;-79
2021/03/11 08:58:28;;;;;;;49.73;26.83;;;1.30;99.90;;;;;;5150208;28;20215;-75
2021/03/11 09:01:00;;;;;;;58.83;28.13;;;1.40;99.90;;;;;;5142457;28;20286;-73
2021/03/11 09:03:42;;;;;;;55.10;27.00;;;1.40;99.90;;;;;;5149829;28;20223;-70
2021/03/11 09:06:15;;;;;;;48.80;26.00;;;1.40;99.90;;;;;;5165289;28;20200;-71
2021/03/11 09:08:52;;;;;;;53.17;25.63;;;1.50;99.90;;;;;;5149684;28;20200;-71
2021/03/11 09:11:25;;;;;;;48.00;24.97;;;1.50;99.90;;;;;;5149871;28;20619;-76
2021/03/11 09:13:57;;;;;;;51.93;25.93;;;1.50;99.90;;;;;;5149836;28;20193;-73
2021/03/11 09:16:29;;;;;;;44.37;24.43;;;1.50;99.90;;;;;;5149557;28;20196;-73
2021/03/11 09:19:00;;;;;;;52.77;24.30;;;1.50;99.90;;;;;;5149754;28;20506;-72
2021/03/11 09:21:35;;;;;;;51.57;25.03;;;1.50;99.90;;;;;;5150398;28;20196;-73
2021/03/11 09:24:20;;;;;;;42.27;23.40;;;1.50;99.90;;;;;;5164699;28;20553;-69
2021/03/11 09:26:52;;;;;;;52.50;24.37;;;1.60;99.90;;;;;;5149129;28;20203;-73
2021/03/11 09:29:23;;;;;;;47.50;24.83;;;1.50;99.90;;;;;;5147700;28;20227;-71
2021/03/11 09:31:55;;;;;;;49.93;25.07;;;1.50;99.90;;;;;;5148905;28;20348;-72
2021/03/11 09:34:28;;;;;;;53.97;23.73;;;1.50;99.90;;;;;;5149397;28;20541;-72
2021/03/11 09:37:00;;;;;;;46.30;24.60;;;1.60;99.90;;;;;;5149310;28;20188;-73
2021/03/11 09:39:32;;;;;;;55.93;24.93;;;1.60;99.90;;;;;;5149766;28;20207;-72
2021/03/11 09:42:09;;;;;;;44.50;22.70;;;1.60;99.90;;;;;;5164097;28;20605;-71
2021/03/11 09:44:44;;;;;;;44.80;23.30;;;1.70;99.90;;;;;;5149690;28;20246;-70
2021/03/11 09:47:28;;;;;;;45.47;23.17;;;1.80;99.90;;;;;;5149306;28;20203;-73
2021/03/11 09:50:10;;;;;;;48.53;22.70;;;1.80;99.90;;;;;;5149352;28;20236;-73
2021/03/11 09:52:58;;;;;;;46.60;22.80;;;1.90;99.90;;;;;;5148016;28;20200;-73
2021/03/11 09:55:30;;;;;;;44.20;22.77;;;1.90;99.90;;;;;;5148515;28;20569;-73
2021/03/11 09:58:02;;;;;;;40.37;23.00;;;1.90;99.90;;;;;;5148987;28;20196;-73
2021/03/11 10:00:49;;;;;;;45.30;22.93;;;1.90;99.90;;;;;;5148754;28;20669;-72
2021/03/11 10:03:22;;;;;;;45.17;23.77;;;2.00;99.90;;;;;;5148939;28;20586;-73
2021/03/11 10:06:06;;;;;;;46.27;22.97;;;2.00;99.90;;;;;;5148201;28;20231;-72
2021/03/11 10:08:41;;;;;;;42.73;23.40;;;2.00;99.90;;;;;;5148583;28;20544;-73
2021/03/11 10:11:29;;;;;;;42.10;23.07;;;2.00;99.90;;;;;;5163422;28;20278;-72
2021/03/11 10:17:47;;;;;;;42.37;22.67;;;2.00;99.90;;;;;;5148544;28;20180;-73
2021/03/11 10:20:28;;;;;;;43.77;22.67;;;2.00;99.90;;;;;;5148568;28;20196;-73
2021/03/11 10:23:16;;;;;;;47.67;23.03;;;2.10;99.90;;;;;;5148333;28;20196;-72
2021/03/11 10:26:13;;;;;;;47.10;23.00;;;2.10;99.90;;;;;;5148464;28;20192;-72
2021/03/11 10:28:47;;;;;;;43.87;22.57;;;2.20;99.90;;;;;;5148092;28;20193;-73
2021/03/11 10:31:23;;;;;;;41.67;22.23;;;2.30;99.90;;;;;;5162906;28;20232;-74
2021/03/11 10:34:09;;;;;;;43.93;22.23;;;2.40;99.90;;;;;;5148265;28;20204;-74
2021/03/11 10:36:57;;;;;;;44.47;22.60;;;2.40;99.90;;;;;;5144354;28;20192;-73
2021/03/11 10:39:29;;;;;;;44.30;22.27;;;2.40;99.90;;;;;;5147640;28;20556;-74
2021/03/11 10:42:06;;;;;;;40.03;22.50;;;2.30;99.90;;;;;;5146501;28;20291;-74
2021/03/11 10:44:53;;;;;;;49.77;24.50;;;2.30;99.90;;;;;;5146877;28;20279;-73
2021/03/11 10:47:26;;;;;;;46.40;23.00;;;2.20;99.90;;;;;;5148086;28;20711;-73
2021/03/11 10:49:58;;;;;;;53.40;24.13;;;2.20;99.90;;;;;;5162345;28;20224;-77
2021/03/11 10:52:50;;;;;;;43.10;23.83;;;2.00;99.90;;;;;;5147334;28;20189;-74
2021/03/11 10:55:25;;;;;;;42.90;23.70;;;1.80;99.90;;;;;;5147351;28;20208;-73
2021/03/11 10:57:58;;;;;;;42.87;23.93;;;1.70;99.90;;;;;;5162619;28;20637;-72
2021/03/11 11:00:36;;;;;;;42.30;22.83;;;1.60;99.90;;;;;;5148017;28;20211;-82
2021/03/11 11:03:08;;;;;;;43.73;23.87;;;1.50;99.90;;;;;;5147493;28;20212;-77
2021/03/11 11:05:40;;;;;;;48.63;23.57;;;1.40;99.90;;;;;;5143964;28;20266;-72
2021/03/11 11:08:17;;;;;;;45.57;25.03;;;1.30;99.90;;;;;;5146925;28;20200;-71
2021/03/11 11:10:49;;;;;;;45.77;24.87;;;1.20;99.90;;;;;;5146747;28;20220;-71
2021/03/11 11:13:21;;;;;;;45.23;25.90;;;0.90;99.90;;;;;;5147052;28;20199;-71
2021/03/11 11:15:52;;;;;;;46.47;26.20;;;0.80;99.90;;;;;;5147327;28;20204;-74
2021/03/11 11:18:24;;;;;;;48.40;26.93;;;0.50;99.90;;;;;;5147082;28;20193;-70
2021/03/11 11:20:55;;;;;;;50.23;26.50;;;0.50;99.90;;;;;;5147230;28;20264;-74
2021/03/11 11:23:27;;;;;;;50.90;27.13;;;0.40;99.90;;;;;;5146776;28;20196;-70
2021/03/11 11:25:59;;;;;;;55.10;28.87;;;0.40;99.90;;;;;;5146870;28;20200;-70
2021/03/11 11:28:31;;;;;;;50.17;27.70;;;0.30;99.90;;;;;;5146624;28;20202;-71
2021/03/11 11:31:03;;;;;;;56.83;29.93;;;0.30;99.90;;;;;;5145033;28;20236;-72
2021/03/11 11:33:36;;;;;;;53.70;28.77;;;0.30;99.90;;;;;;5146952;28;20604;-69
2021/03/11 11:36:08;;;;;;;54.90;29.37;;;0.30;99.90;;;;;;5146447;28;20283;-72
2021/03/11 11:38:39;;;;;;;56.23;28.90;;;0.20;99.90;;;;;;5161792;28;20658;-71
2021/03/11 11:41:11;;;;;;;53.40;28.87;;;0.10;99.90;;;;;;5146425;28;20200;-72
2021/03/11 11:43:42;;;;;;;54.50;28.97;;;0.10;99.90;;;;;;5146637;28;20199;-72
2021/03/11 11:46:14;;;;;;;56.50;30.07;;;0.10;99.90;;;;;;5147096;28;20204;-72
2021/03/11 11:48:46;;;;;;;62.67;32.40;;;0.00;99.90;;;;;;5147163;28;20663;-73
2021/03/11 11:51:17;;;;;;;59.60;31.47;;;0.00;99.90;;;;;;5146337;28;20232;-69
2021/03/11 11:53:50;;;;;;;67.20;32.67;;;-0.10;99.90;;;;;;5144079;28;20193;-70
2021/03/11 11:56:21;;;;;;;63.57;32.27;;;-0.20;99.90;;;;;;5146369;28;20554;-71
2021/03/11 11:58:53;;;;;;;62.17;33.63;;;-0.20;99.90;;;;;;5146140;28;20490;-68
2021/03/11 12:01:24;;;;;;;67.17;35.50;;;-0.20;99.90;;;;;;5146241;28;20208;-68
2021/03/11 12:03:56;;;;;;;66.47;35.47;;;-0.20;99.90;;;;;;5146565;28;20220;-68
2021/03/11 12:06:27;;;;;;;74.07;38.43;;;-0.20;99.90;;;;;;5146564;28;20203;-68
2021/03/11 12:09:00;;;;;;;71.70;37.63;;;-0.30;99.90;;;;;;5146169;28;20204;-69
2021/03/11 12:11:31;;;;;;;70.23;37.50;;;-0.30;99.90;;;;;;5146482;28;20620;-70
2021/03/11 12:14:03;;;;;;;69.60;38.23;;;-0.40;99.90;;;;;;5145897;28;20196;-69
2021/03/11 12:16:35;;;;;;;78.73;38.93;;;-0.40;99.90;;;;;;5144900;28;20290;-72
2021/03/11 12:19:07;;;;;;;78.37;40.97;;;-0.40;99.90;;;;;;5145873;28;20249;-69
2021/03/11 12:21:39;;;;;;;76.50;40.97;;;-0.50;99.90;;;;;;5145873;28;20291;-71
2021/03/11 12:24:10;;;;;;;81.57;40.20;;;-0.50;99.90;;;;;;5146266;28;20196;-72
2021/03/11 12:26:43;;;;;;;81.73;41.60;;;-0.50;99.90;;;;;;5146410;28;20230;-70
2021/03/11 12:33:00;;;;;;;77.80;40.47;;;-0.60;99.90;;;;;;5139084;28;20299;-72
2021/03/11 12:35:32;;;;;;;78.43;41.10;;;-0.60;99.90;;;;;;5159834;28;20608;-71
2021/03/11 12:38:07;;;;;;;80.43;41.10;;;-0.60;99.90;;;;;;5146102;28;20196;-67
2021/03/11 12:40:41;;;;;;;81.93;41.70;;;-0.50;99.90;;;;;;5143826;28;20349;-67
2021/03/11 12:43:13;;;;;;;90.33;44.23;;;-0.50;99.90;;;;;;5145901;28;20281;-70
2021/03/11 12:49:45;;;;;;;82.70;42.00;;;-0.40;99.90;;;;;;5143058;28;20223;-67
2021/03/11 12:52:16;;;;;;;81.63;43.30;;;-0.30;99.90;;;;;;5145447;28;20273;-68
2021/03/11 12:54:48;;;;;;;79.03;40.47;;;-0.30;99.90;;;;;;5145636;28;20203;-70
2021/03/11 12:57:20;;;;;;;77.17;42.27;;;-0.40;99.90;;;;;;5145954;28;20192;-68
2021/03/11 12:59:55;;;;;;;78.10;40.00;;;-0.40;99.90;;;;;;5145517;28;20291;-70
2021/03/11 13:02:26;;;;;;;83.93;42.10;;;-0.40;99.90;;;;;;5145856;28;20192;-70
2021/03/11 13:04:58;;;;;;;88.17;55.43;;;-0.40;99.90;;;;;;5144636;28;20908;-69
2021/03/11 13:07:30;;;;;;;81.90;45.37;;;-0.40;99.90;;;;;;5146057;28;20207;-69
2021/03/11 13:10:03;;;;;;;80.20;44.80;;;-0.50;99.90;;;;;;5145890;28;20247;-67
2021/03/11 13:12:35;;;;;;;76.13;41.57;;;-0.50;99.90;;;;;;5146135;28;20203;-68
2021/03/11 13:15:07;;;;;;;79.50;42.27;;;-0.50;99.90;;;;;;5145728;28;20215;-70
2021/03/11 13:17:39;;;;;;;81.13;42.10;;;-0.50;99.90;;;;;;5146367;28;20548;-69
2021/03/11 13:20:11;;;;;;;78.60;41.13;;;-0.50;99.90;;;;;;5146252;28;20283;-68
2021/03/11 13:22:43;;;;;;;87.43;45.03;;;-0.60;99.90;;;;;;5146565;28;20200;-68
2021/03/11 13:25:16;;;;;;;89.17;44.47;;;-0.50;99.90;;;;;;5146362;28;20200;-71
2021/03/11 13:27:48;;;;;;;83.83;43.10;;;-0.60;99.90;;;;;;5146367;28;20235;-68
2021/03/11 13:30:20;;;;;;;82.70;42.87;;;-0.60;99.90;;;;;;5148905;28;20505;-67
2021/03/11 13:32:51;;;;;;;80.40;43.90;;;-0.60;99.90;;;;;;5149364;28;20608;-67
2021/03/11 13:35:23;;;;;;;80.63;43.53;;;-0.50;99.90;;;;;;5149297;28;20552;-68
2021/03/11 13:37:55;;;;;;;88.17;44.87;;;-0.50;99.90;;;;;;5149344;28;20671;-71
2021/03/11 13:40:27;;;;;;;86.00;43.73;;;-0.40;99.90;;;;;;5150164;28;20203;-67
2021/03/11 13:43:01;;;;;;;89.83;47.20;;;-0.30;99.90;;;;;;5164580;28;20202;-69
2021/03/11 13:45:37;;;;;;;86.63;45.73;;;-0.20;99.90;;;;;;5149757;28;20200;-67
2021/03/11 13:48:09;;;;;;;88.53;44.87;;;-0.20;99.90;;;;;;5149632;28;20255;-66
2021/03/11 13:50:42;;;;;;;86.97;46.83;;;-0.20;99.90;;;;;;5150126;28;20314;-69
2021/03/11 13:53:13;;;;;;;81.20;43.77;;;-0.10;99.90;;;;;;5164088;28;20193;-68
2021/03/11 13:55:45;;;;;;;87.20;45.73;;;-0.10;99.90;;;;;;5150200;28;20547;-70
2021/03/11 13:58:16;;;;;;;89.00;46.00;;;-0.10;99.90;;;;;;5150178;28;20280;-68
2021/03/11 14:00:49;;;;;;;87.77;44.13;;;-0.20;99.90;;;;;;5150332;28;20557;-66
2021/03/11 14:03:21;;;;;;;83.00;45.47;;;-0.20;99.90;;;;;;5149658;28;20203;-68
2021/03/11 14:05:53;;;;;;;83.60;44.80;;;-0.20;99.90;;;;;;5149423;28;20279;-69
2021/03/11 14:08:25;;;;;;;84.80;44.17;;;-0.20;99.90;;;;;;5149135;28;20200;-70